Time;durP1;ratioP1;P1;durP2;ratioP2;P2;SDS_P1;SDS_P2;PMS_P1;PMS_P2;Temp;Humidity;BMP_temperature;BMP_pressure;BME280_temperature;BME280_humidity;BME280_pressure;Samples;Min_cycle;Max_cycle;Signal;HPM_P1;HPM_P2
2023/05/11 00:02:00;;;;;;;26.42;23.17;;;13.60;99.90;;;;;;5025526;28;20480;-76
2023/05/11 00:04:26;;;;;;;26.23;23.63;;;13.60;99.90;;;;;;5015423;28;20048;-77
2023/05/11 00:06:53;;;;;;;25.77;23.08;;;13.60;99.90;;;;;;5025912;28;20060;-76
2023/05/11 00:09:19;;;;;;;;;;;13.60;99.90;;;;;;5021258;28;20052;-78
2023/05/11 00:11:45;;;;;;;26.42;23.83;;;13.60;99.90;;;;;;5013234;28;19925;-79
2023/05/11 00:14:11;;;;;;;28.65;25.73;;;13.60;99.90;;;;;;5022798;28;20057;-78
2023/05/11 00:16:36;;;;;;;27.15;24.25;;;13.60;99.90;;;;;;5026866;28;20091;-77
2023/05/11 00:19:02;;;;;;;29.15;26.27;;;13.60;99.90;;;;;;5030552;28;20045;-77
2023/05/11 00:21:27;;;;;;;28.33;25.42;;;13.60;99.90;;;;;;5024334;28;20063;-78
2023/05/11 00:23:53;;;;;;;29.85;26.65;;;13.50;99.90;;;;;;5024248;28;20040;-78
2023/05/11 00:26:20;;;;;;;30.00;26.88;;;13.60;99.90;;;;;;5033614;28;20041;-77
2023/05/11 00:28:45;;;;;;;30.60;27.47;;;13.50;99.90;;;;;;5039496;28;20190;-78
2023/05/11 00:31:11;;;;;;;30.55;27.25;;;13.50;99.90;;;;;;5036769;28;20508;-78
2023/05/11 00:33:37;;;;;;;30.85;27.55;;;13.50;99.90;;;;;;5034585;28;20041;-78
2023/05/11 00:36:03;;;;;;;30.60;27.40;;;13.50;99.90;;;;;;5036132;28;20053;-77
2023/05/11 00:38:29;;;;;;;31.88;28.48;;;13.40;99.90;;;;;;5030262;28;20060;-77
2023/05/11 00:40:55;;;;;;;29.65;26.50;;;13.40;99.90;;;;;;5031004;28;20057;-77
2023/05/11 00:43:21;;;;;;;33.00;28.37;;;13.40;99.90;;;;;;5032765;28;20036;-79
2023/05/11 00:45:48;;;;;;;32.05;28.63;;;13.40;99.90;;;;;;5036054;28;20083;-77
2023/05/11 00:48:15;;;;;;;31.95;28.63;;;13.40;99.90;;;;;;5032882;28;20550;-79
2023/05/11 00:50:41;;;;;;;30.65;27.40;;;13.40;99.90;;;;;;5028528;28;20060;-78
2023/05/11 00:53:06;;;;;;;33.17;29.80;;;13.40;99.90;;;;;;5029254;28;20426;-77
2023/05/11 00:55:32;;;;;;;33.30;29.60;;;13.40;99.90;;;;;;5030815;28;20056;-77
2023/05/11 00:57:59;;;;;;;32.85;28.63;;;13.40;99.90;;;;;;5029256;28;20053;-79
2023/05/11 01:00:25;;;;;;;34.60;30.42;;;13.40;99.90;;;;;;5026895;28;20716;-79
2023/05/11 01:02:52;;;;;;;37.10;29.73;;;13.30;99.90;;;;;;5023691;28;20087;-77
2023/05/11 01:05:17;;;;;;;34.25;30.55;;;13.30;99.90;;;;;;5030677;28;20531;-78
2023/05/11 01:08:22;;;;;;;35.20;30.23;;;13.30;99.90;;;;;;5025890;28;20045;-78
2023/05/11 01:11:00;;;;;;;36.92;30.85;;;13.30;99.90;;;;;;5031319;28;20072;-77
2023/05/11 01:13:38;;;;;;;38.63;31.88;;;13.30;99.90;;;;;;5029350;28;20061;-77
2023/05/11 01:16:16;;;;;;;38.97;32.30;;;13.30;99.90;;;;;;5028704;28;20045;-78
2023/05/11 01:19:02;;;;;;;37.35;32.10;;;13.30;99.90;;;;;;5031031;28;20565;-77
2023/05/11 01:21:32;;;;;;;38.78;32.92;;;13.20;99.90;;;;;;5025738;28;20037;-77
2023/05/11 01:24:23;;;;;;;41.33;33.95;;;13.20;99.90;;;;;;5033433;28;20861;-80
2023/05/11 01:27:24;;;;;;;34.97;31.13;;;13.20;99.90;;;;;;5033409;28;20049;-79
2023/05/11 01:30:18;;;;;;;39.78;33.63;;;13.20;99.90;;;;;;5011472;28;20084;-79
2023/05/11 01:32:45;;;;;;;44.17;34.53;;;13.20;99.90;;;;;;5032872;28;20049;-79
2023/05/11 01:35:17;;;;;;;41.35;34.70;;;13.20;99.90;;;;;;5036309;28;20037;-77
2023/05/11 01:37:49;;;;;;;40.45;32.40;;;13.20;99.90;;;;;;5026070;28;20114;-77
2023/05/11 01:40:17;;;;;;;39.92;34.13;;;13.20;99.90;;;;;;5022096;28;20088;-76
2023/05/11 01:42:57;;;;;;;40.60;33.88;;;13.20;99.90;;;;;;5031227;28;20495;-77
2023/05/11 01:45:24;;;;;;;42.85;33.70;;;13.30;99.90;;;;;;5019729;28;20041;-77
2023/05/11 01:47:51;;;;;;;43.05;34.38;;;13.20;99.90;;;;;;5031308;28;20053;-78
2023/05/11 01:50:21;;;;;;;39.95;32.65;;;13.20;99.90;;;;;;5020398;28;20390;-76
2023/05/11 01:52:49;;;;;;;40.10;32.90;;;13.20;99.90;;;;;;5025499;28;20453;-78
2023/05/11 01:55:18;;;;;;;42.88;33.90;;;13.20;99.90;;;;;;5015669;28;20037;-78
2023/05/11 01:57:45;;;;;;;43.30;34.55;;;13.20;99.90;;;;;;5019050;28;20093;-77
2023/05/11 02:00:14;;;;;;;45.22;35.10;;;13.20;99.90;;;;;;5022474;28;20057;-79
2023/05/11 02:02:42;;;;;;;41.72;33.92;;;13.20;99.90;;;;;;5022117;28;20113;-77
2023/05/11 02:05:09;;;;;;;43.83;34.95;;;13.20;99.90;;;;;;5023948;28;20046;-78
2023/05/11 02:07:37;;;;;;;42.40;35.25;;;13.20;99.90;;;;;;5014101;28;20099;-78
2023/05/11 02:10:03;;;;;;;41.65;33.40;;;13.20;99.90;;;;;;5025936;28;20049;-77
2023/05/11 02:12:32;;;;;;;40.70;34.15;;;13.20;99.90;;;;;;5020585;28;20045;-77
2023/05/11 02:15:00;;;;;;;40.00;33.45;;;13.20;99.90;;;;;;5030084;28;21160;-76
2023/05/11 02:17:27;;;;;;;40.22;33.05;;;13.20;99.90;;;;;;5027271;28;20559;-78
2023/05/11 02:19:54;;;;;;;;;;;13.20;99.90;;;;;;5026853;28;20079;-75
2023/05/11 02:22:22;;;;;;;39.95;33.95;;;13.10;99.90;;;;;;5029017;28;19924;-77
2023/05/11 02:24:48;;;;;;;36.80;31.88;;;13.10;99.90;;;;;;5030525;28;20044;-76
2023/05/11 02:27:14;;;;;;;37.38;32.78;;;13.10;99.90;;;;;;5028410;28;20053;-77
2023/05/11 02:29:40;;;;;;;40.47;33.10;;;13.10;99.90;;;;;;5018736;28;20041;-75
2023/05/11 02:32:08;;;;;;;38.08;33.45;;;13.10;99.90;;;;;;5027606;28;20045;-78
2023/05/11 02:34:43;;;;;;;38.50;31.85;;;13.10;99.90;;;;;;5028817;28;20044;-77
2023/05/11 02:37:19;;;;;;;40.63;33.08;;;13.10;99.90;;;;;;5025685;28;20053;-75
2023/05/11 02:39:51;;;;;;;38.22;32.63;;;13.10;99.90;;;;;;5020796;28;20054;-77
2023/05/11 02:42:21;;;;;;;40.75;32.90;;;13.00;99.90;;;;;;5034401;28;20048;-76
2023/05/11 02:45:07;;;;;;;36.28;31.17;;;13.00;99.90;;;;;;5023920;28;20171;-76
2023/05/11 02:47:41;;;;;;;36.40;31.85;;;13.00;99.90;;;;;;5030271;28;20152;-76
2023/05/11 02:50:08;;;;;;;36.47;31.40;;;13.00;99.90;;;;;;5030636;28;20507;-74
2023/05/11 02:52:37;;;;;;;36.60;31.23;;;13.00;99.90;;;;;;5028972;28;20091;-75
2023/05/11 02:55:05;;;;;;;34.30;30.45;;;12.90;99.90;;;;;;5031688;28;20048;-75
2023/05/11 02:57:31;;;;;;;;;;;12.90;99.90;;;;;;5028673;28;20122;-74
2023/05/11 02:59:57;;;;;;;39.05;32.05;;;12.90;99.90;;;;;;5026579;28;20852;-76
2023/05/11 03:02:23;;;;;;;37.53;31.52;;;12.90;99.90;;;;;;5028516;28;20110;-76
2023/05/11 03:04:48;;;;;;;37.60;31.35;;;12.90;99.90;;;;;;5031048;28;20049;-76
2023/05/11 03:07:14;;;;;;;40.88;33.33;;;12.90;99.90;;;;;;5020573;28;20045;-76
2023/05/11 03:09:40;;;;;;;38.03;31.63;;;12.90;99.90;;;;;;5026295;28;20048;-76
2023/05/11 03:12:07;;;;;;;40.47;33.03;;;12.90;99.90;;;;;;5021197;28;20504;-76
2023/05/11 03:14:33;;;;;;;41.70;34.08;;;12.90;99.90;;;;;;5033800;28;20063;-76
2023/05/11 03:17:00;;;;;;;44.72;35.05;;;12.90;99.90;;;;;;5023946;28;20041;-74
2023/05/11 03:19:30;;;;;;;43.10;33.33;;;12.90;99.90;;;;;;5022761;28;20048;-79
2023/05/11 03:21:58;;;;;;;41.53;33.35;;;12.90;99.90;;;;;;5024224;28;20055;-77
2023/05/11 03:24:25;;;;;;;44.55;35.50;;;12.90;99.90;;;;;;5023545;28;20049;-79
2023/05/11 03:26:54;;;;;;;44.05;34.25;;;12.90;99.90;;;;;;5026538;28;20102;-78
2023/05/11 03:29:22;;;;;;;45.08;34.95;;;12.80;99.90;;;;;;5029909;28;20046;-75
2023/05/11 03:31:48;;;;;;;39.67;31.48;;;12.80;99.90;;;;;;5034440;28;20053;-78
2023/05/11 03:34:14;;;;;;;41.25;33.10;;;12.80;99.90;;;;;;5025183;28;20029;-78
2023/05/11 03:36:41;;;;;;;42.78;33.47;;;12.80;99.90;;;;;;5019553;28;20036;-75
2023/05/11 03:39:10;;;;;;;38.70;32.33;;;12.70;99.90;;;;;;5030140;28;20133;-75
2023/05/11 03:41:39;;;;;;;43.85;33.25;;;12.80;99.90;;;;;;5022739;28;20041;-76
2023/05/11 03:44:07;;;;;;;35.85;30.27;;;12.80;99.90;;;;;;5019206;28;20049;-79
2023/05/11 03:46:35;;;;;;;35.20;30.40;;;12.80;99.90;;;;;;5022502;28;20041;-76
2023/05/11 03:49:03;;;;;;;35.95;30.45;;;12.80;99.90;;;;;;5013422;28;20049;-76
2023/05/11 03:51:30;;;;;;;40.72;31.67;;;12.70;99.90;;;;;;5012386;28;20599;-77
2023/05/11 03:53:57;;;;;;;38.63;30.40;;;12.70;99.90;;;;;;5013509;28;20064;-76
2023/05/11 03:56:23;;;;;;;31.17;26.85;;;12.70;99.90;;;;;;5022027;28;20078;-76
2023/05/11 03:58:49;;;;;;;30.02;26.58;;;12.70;99.90;;;;;;5026528;28;20149;-77
2023/05/11 04:01:15;;;;;;;34.30;27.58;;;12.70;99.90;;;;;;5022337;28;20057;-76
2023/05/11 04:03:48;;;;;;;28.95;25.70;;;12.70;99.90;;;;;;5016933;28;20053;-76
2023/05/11 04:06:15;;;;;;;31.33;26.60;;;12.70;99.90;;;;;;5021485;28;20051;-77
2023/05/11 04:08:41;;;;;;;37.15;28.17;;;12.70;99.90;;;;;;5014780;28;20040;-77
2023/05/11 04:11:06;;;;;;;33.58;26.77;;;12.70;99.90;;;;;;5021556;28;20056;-77
2023/05/11 04:13:32;;;;;;;35.40;27.40;;;12.70;99.90;;;;;;5019541;28;20047;-78
2023/05/11 04:15:58;;;;;;;34.70;27.65;;;12.70;99.90;;;;;;5018342;28;20053;-75
2023/05/11 04:18:24;;;;;;;32.15;27.17;;;12.70;99.90;;;;;;5019605;28;20132;-75
2023/05/11 04:20:50;;;;;;;35.03;27.00;;;12.70;99.90;;;;;;5016348;28;20317;-77
2023/05/11 04:23:15;;;;;;;35.35;28.05;;;12.70;99.90;;;;;;5019567;28;20064;-75
2023/05/11 04:25:41;;;;;;;37.38;28.65;;;12.70;99.90;;;;;;5014325;28;20183;-77
2023/05/11 04:28:07;;;;;;;32.15;26.60;;;12.70;99.90;;;;;;5023154;28;20052;-76
2023/05/11 04:30:32;;;;;;;30.48;26.08;;;12.70;99.90;;;;;;5021566;28;20037;-78
2023/05/11 04:32:58;;;;;;;32.45;26.27;;;12.70;99.90;;;;;;5026015;28;20533;-76
2023/05/11 04:35:24;;;;;;;39.38;27.27;;;12.70;99.90;;;;;;5023274;28;20044;-74
2023/05/11 04:37:55;;;;;;;31.83;27.48;;;12.70;99.90;;;;;;5024148;28;20041;-78
2023/05/11 04:40:21;;;;;;;34.53;27.00;;;12.70;99.90;;;;;;5018819;28;20053;-76
2023/05/11 04:42:47;;;;;;;36.92;27.92;;;12.60;99.90;;;;;;5025096;28;20085;-75
2023/05/11 04:45:13;;;;;;;39.35;30.58;;;12.70;99.90;;;;;;5023617;28;20079;-78
2023/05/11 04:47:38;;;;;;;34.63;28.58;;;12.70;99.90;;;;;;5021833;28;20664;-75
2023/05/11 04:50:05;;;;;;;32.28;26.75;;;12.70;99.90;;;;;;5030970;28;20102;-74
2023/05/11 04:52:30;;;;;;;34.13;27.70;;;12.70;99.90;;;;;;5029540;28;20480;-76
2023/05/11 04:54:56;;;;;;;35.75;28.00;;;12.80;99.90;;;;;;5032240;28;20132;-75
2023/05/11 04:57:22;;;;;;;33.47;28.35;;;12.80;99.90;;;;;;5022725;28;20060;-75
2023/05/11 04:59:47;;;;;;;35.20;28.70;;;12.80;99.90;;;;;;5028077;28;20515;-79
2023/05/11 05:02:13;;;;;;;33.85;27.40;;;12.80;99.90;;;;;;5026016;28;20041;-75
2023/05/11 05:04:39;;;;;;;32.10;26.27;;;12.80;99.90;;;;;;5025247;28;20041;-75
2023/05/11 05:07:05;;;;;;;31.17;25.23;;;12.90;99.90;;;;;;5028676;28;20049;-75
2023/05/11 05:09:30;;;;;;;31.45;26.35;;;12.80;99.90;;;;;;5023290;28;20080;-76
2023/05/11 05:11:56;;;;;;;30.92;25.10;;;12.90;99.90;;;;;;5033446;28;20499;-77
2023/05/11 05:14:21;;;;;;;32.25;25.70;;;12.90;99.90;;;;;;5036612;28;20515;-77
2023/05/11 05:16:47;;;;;;;30.75;25.38;;;12.90;99.90;;;;;;5030703;28;20049;-74
2023/05/11 05:19:13;;;;;;;34.47;26.48;;;12.90;99.90;;;;;;5024185;28;20126;-73
2023/05/11 05:21:39;;;;;;;29.90;25.00;;;12.90;99.90;;;;;;5030006;28;20049;-74
2023/05/11 05:24:05;;;;;;;28.25;24.50;;;12.90;99.90;;;;;;5023400;28;20056;-73
2023/05/11 05:26:31;;;;;;;31.23;24.95;;;12.90;99.90;;;;;;5033223;28;20127;-73
2023/05/11 05:28:57;;;;;;;30.65;25.75;;;13.00;99.90;;;;;;5025549;28;20063;-73
2023/05/11 05:31:23;;;;;;;29.20;24.88;;;13.00;99.90;;;;;;5027390;28;20572;-73
2023/05/11 05:33:49;;;;;;;30.23;25.40;;;13.00;99.90;;;;;;5029848;28;20126;-74
2023/05/11 05:36:15;;;;;;;32.28;25.40;;;13.00;99.90;;;;;;5024941;28;20144;-74
2023/05/11 05:38:40;;;;;;;29.15;24.25;;;13.00;99.90;;;;;;5032618;28;20048;-75
2023/05/11 05:41:06;;;;;;;30.33;25.30;;;13.00;99.90;;;;;;5032642;28;21673;-74
2023/05/11 05:43:32;;;;;;;30.90;25.75;;;13.00;99.90;;;;;;5029738;28;20041;-73
2023/05/11 05:45:57;;;;;;;32.47;26.58;;;13.00;99.90;;;;;;5016408;28;20083;-74
2023/05/11 05:48:23;;;;;;;32.63;26.25;;;13.10;99.90;;;;;;5021225;28;20044;-74
2023/05/11 05:50:49;;;;;;;31.33;25.77;;;13.10;99.90;;;;;;5014785;28;20033;-72
2023/05/11 05:53:15;;;;;;;30.70;24.77;;;13.20;99.90;;;;;;5025855;28;20117;-74
2023/05/11 05:55:40;;;;;;;30.58;25.08;;;13.30;99.90;;;;;;5025072;28;20052;-74
2023/05/11 05:58:06;;;;;;;31.10;24.90;;;13.30;99.90;;;;;;5029698;28;20060;-73
2023/05/11 06:00:32;;;;;;;32.50;24.88;;;13.30;99.90;;;;;;5028554;28;20056;-74
2023/05/11 06:02:58;;;;;;;32.47;25.23;;;13.40;99.90;;;;;;5032340;28;20045;-74
2023/05/11 06:05:24;;;;;;;28.83;23.67;;;13.40;99.90;;;;;;5021244;28;20306;-73
2023/05/11 06:07:50;;;;;;;29.30;24.55;;;13.40;99.90;;;;;;5027845;28;20552;-73
2023/05/11 06:10:15;;;;;;;31.00;24.10;;;13.50;99.90;;;;;;5031757;28;20075;-73
2023/05/11 06:12:41;;;;;;;28.25;23.40;;;13.50;99.90;;;;;;5028936;28;20055;-72
2023/05/11 06:15:07;;;;;;;28.17;23.08;;;13.40;99.90;;;;;;5030454;28;20041;-73
2023/05/11 06:17:33;;;;;;;26.45;22.83;;;13.40;99.90;;;;;;5028295;28;20516;-73
2023/05/11 06:19:58;;;;;;;28.77;23.25;;;13.40;99.90;;;;;;5031850;28;20049;-72
2023/05/11 06:22:24;;;;;;;29.92;23.55;;;13.50;99.90;;;;;;5022964;28;20052;-73
2023/05/11 06:24:50;;;;;;;27.60;23.13;;;13.50;99.90;;;;;;5024469;28;20438;-74
2023/05/11 06:27:15;;;;;;;28.00;22.85;;;13.50;99.90;;;;;;5030361;28;20152;-74
2023/05/11 06:29:41;;;;;;;28.88;23.70;;;13.50;99.90;;;;;;5023982;28;20057;-73
2023/05/11 06:32:07;;;;;;;28.58;22.52;;;13.50;99.90;;;;;;5028196;28;20052;-74
2023/05/11 06:34:32;;;;;;;29.25;22.90;;;13.50;99.90;;;;;;5032819;28;20506;-73
2023/05/11 06:36:59;;;;;;;28.13;22.83;;;13.50;99.90;;;;;;5029666;28;20045;-74
2023/05/11 06:39:24;;;;;;;30.13;22.77;;;13.50;99.90;;;;;;5025383;28;20057;-73
2023/05/11 06:41:53;;;;;;;27.95;23.25;;;13.50;99.90;;;;;;5031051;28;20056;-73
2023/05/11 06:44:19;;;;;;;29.08;23.02;;;13.60;99.90;;;;;;5031325;28;20041;-73
2023/05/11 06:46:45;;;;;;;28.02;22.38;;;13.50;99.90;;;;;;5026261;28;20040;-73
2023/05/11 06:49:11;;;;;;;26.77;22.30;;;13.50;99.90;;;;;;5030282;28;20041;-74
2023/05/11 06:51:40;;;;;;;29.48;22.20;;;13.60;99.90;;;;;;5028926;28;20068;-74
2023/05/11 06:54:06;;;;;;;26.70;22.23;;;13.60;99.90;;;;;;5021532;28;20049;-74
2023/05/11 06:56:32;;;;;;;25.58;21.23;;;13.60;99.90;;;;;;5021288;28;20098;-73
2023/05/11 06:58:58;;;;;;;29.40;22.52;;;13.60;99.90;;;;;;5024887;28;20053;-73
2023/05/11 07:01:24;;;;;;;28.38;23.17;;;13.70;99.90;;;;;;5023992;28;20075;-73
2023/05/11 07:03:53;;;;;;;27.35;23.10;;;13.70;99.90;;;;;;5032982;28;20089;-73
2023/05/11 07:06:20;;;;;;;28.73;24.10;;;13.70;99.90;;;;;;5030678;28;20076;-73
2023/05/11 07:08:45;;;;;;;27.40;23.38;;;13.80;99.90;;;;;;5026985;28;20052;-73
2023/05/11 07:11:12;;;;;;;29.35;23.85;;;13.80;99.90;;;;;;5027753;28;20044;-73
2023/05/11 07:13:37;;;;;;;28.63;23.80;;;13.80;99.90;;;;;;5021563;28;20142;-73
2023/05/11 07:16:03;;;;;;;28.95;24.88;;;13.80;99.90;;;;;;5025462;28;20086;-74
2023/05/11 07:18:29;;;;;;;31.90;25.20;;;13.80;99.90;;;;;;5021934;28;20541;-75
2023/05/11 07:20:55;;;;;;;29.90;26.17;;;13.80;99.90;;;;;;5024678;28;20045;-73
2023/05/11 07:23:20;;;;;;;30.05;25.35;;;13.80;99.90;;;;;;5025251;28;20746;-74
2023/05/11 07:25:46;;;;;;;32.35;25.67;;;13.90;99.90;;;;;;5024424;28;20055;-75
2023/05/11 07:28:11;;;;;;;29.55;26.35;;;13.90;99.90;;;;;;5022758;28;20048;-76
2023/05/11 07:30:37;;;;;;;32.20;27.92;;;13.90;99.90;;;;;;5028516;28;20048;-74
2023/05/11 07:33:03;;;;;;;33.80;26.70;;;14.00;99.90;;;;;;5028719;28;20052;-76
2023/05/11 07:35:28;;;;;;;31.02;27.58;;;14.00;99.90;;;;;;5021907;28;20049;-75
2023/05/11 07:37:54;;;;;;;32.03;27.08;;;14.00;99.90;;;;;;5021840;28;20041;-75
2023/05/11 07:40:20;;;;;;;31.67;27.00;;;14.10;99.90;;;;;;5017707;28;20041;-78
2023/05/11 07:42:45;;;;;;;34.25;27.58;;;14.10;99.90;;;;;;5029197;28;20476;-76
2023/05/11 07:45:11;;;;;;;33.45;28.10;;;14.10;99.90;;;;;;5023941;28;20048;-74
2023/05/11 07:47:36;;;;;;;35.50;28.15;;;14.10;99.90;;;;;;5019535;28;20076;-75
2023/05/11 07:50:02;;;;;;;33.80;28.83;;;14.10;99.90;;;;;;5017363;28;20124;-75
2023/05/11 07:52:28;;;;;;;34.17;27.58;;;14.10;99.90;;;;;;5015290;28;20053;-75
2023/05/11 07:54:54;;;;;;;34.85;28.35;;;14.10;99.90;;;;;;5018237;28;20139;-74
2023/05/11 07:57:19;;;;;;;32.58;28.15;;;14.10;99.90;;;;;;5014586;28;20088;-75
2023/05/11 07:59:48;;;;;;;32.28;26.73;;;14.00;99.90;;;;;;5021500;28;20057;-76
2023/05/11 08:02:14;;;;;;;29.55;26.35;;;14.10;99.90;;;;;;5019383;28;20102;-75
2023/05/11 08:04:39;;;;;;;29.77;25.27;;;14.00;99.90;;;;;;5028833;28;20045;-73
2023/05/11 08:07:05;;;;;;;30.50;25.90;;;14.00;99.90;;;;;;5029510;28;20057;-75
2023/05/11 08:09:31;;;;;;;31.55;26.60;;;14.00;99.90;;;;;;5018751;28;20561;-75
2023/05/11 08:11:56;;;;;;;29.60;25.23;;;14.00;99.90;;;;;;5021269;28;20519;-75
2023/05/11 08:14:24;;;;;;;30.27;25.73;;;14.10;99.90;;;;;;5016340;28;20221;-76
2023/05/11 08:16:49;;;;;;;30.80;26.77;;;14.00;99.90;;;;;;5028130;28;20146;-73
2023/05/11 08:19:15;;;;;;;28.75;25.23;;;14.00;99.90;;;;;;5025098;28;20515;-71
2023/05/11 08:21:41;;;;;;;29.17;25.98;;;14.10;99.90;;;;;;5023860;28;20057;-74
2023/05/11 08:24:07;;;;;;;27.00;24.08;;;14.10;99.90;;;;;;5031852;28;20106;-74
2023/05/11 08:26:33;;;;;;;30.27;25.98;;;14.10;99.90;;;;;;5015522;28;20045;-74
2023/05/11 08:28:58;;;;;;;28.23;25.17;;;14.10;99.90;;;;;;5023166;28;20175;-73
2023/05/11 08:31:24;;;;;;;28.40;24.75;;;14.10;99.90;;;;;;5023894;28;20048;-73
2023/05/11 08:33:50;;;;;;;28.13;24.27;;;14.00;99.90;;;;;;5026046;28;20136;-74
2023/05/11 08:36:15;;;;;;;29.73;24.35;;;14.00;99.90;;;;;;5011231;28;20270;-74
2023/05/11 08:38:41;;;;;;;28.95;25.20;;;14.10;99.90;;;;;;5021609;28;20435;-74
2023/05/11 08:41:10;;;;;;;27.45;24.45;;;14.10;99.90;;;;;;5019638;28;20488;-73
2023/05/11 08:43:38;;;;;;;28.95;25.20;;;14.10;99.90;;;;;;5024117;28;20050;-75
2023/05/11 08:46:08;;;;;;;28.58;24.33;;;14.00;99.90;;;;;;5019994;28;20536;-72
2023/05/11 08:48:35;;;;;;;28.67;25.52;;;14.00;99.90;;;;;;5026447;28;20045;-75
2023/05/11 08:51:03;;;;;;;29.77;26.52;;;14.00;99.90;;;;;;5022997;28;20112;-75
2023/05/11 08:53:28;;;;;;;29.60;25.85;;;14.00;99.90;;;;;;5020953;28;20048;-74
2023/05/11 08:55:57;;;;;;;27.98;25.10;;;14.00;99.90;;;;;;5026508;28;21490;-76
2023/05/11 08:58:23;;;;;;;29.50;26.13;;;14.00;99.90;;;;;;5025955;28;20523;-76
2023/05/11 09:00:49;;;;;;;28.60;25.50;;;14.00;99.90;;;;;;5024684;28;20128;-76
2023/05/11 09:03:17;;;;;;;28.95;24.77;;;14.00;99.90;;;;;;5031968;28;20122;-74
2023/05/11 09:05:44;;;;;;;;;;;14.00;99.90;;;;;;5023030;28;20049;-74
2023/05/11 09:08:12;;;;;;;27.70;24.48;;;14.00;99.90;;;;;;5038211;28;20327;-75
2023/05/11 09:10:38;;;;;;;28.63;25.08;;;14.00;99.90;;;;;;5021320;28;20053;-74
2023/05/11 09:13:06;;;;;;;27.33;24.13;;;14.00;99.90;;;;;;5025068;28;20532;-73
2023/05/11 09:15:32;;;;;;;29.08;24.83;;;14.00;99.90;;;;;;5024568;28;20041;-74
2023/05/11 09:17:58;;;;;;;29.08;25.30;;;14.00;99.90;;;;;;5023405;28;20044;-72
2023/05/11 09:20:29;;;;;;;27.02;24.15;;;14.00;99.90;;;;;;5034478;28;20053;-73
2023/05/11 09:22:55;;;;;;;29.80;26.02;;;14.00;99.90;;;;;;5026843;28;20037;-74
2023/05/11 09:25:22;;;;;;;28.90;25.52;;;14.00;99.90;;;;;;5020135;28;20033;-74
2023/05/11 09:27:48;;;;;;;;;;;14.00;99.90;;;;;;5018322;28;20061;-73
2023/05/11 09:30:15;;;;;;;24.40;20.65;;;14.00;99.90;;;;;;5018031;28;20283;-73
2023/05/11 09:32:49;;;;;;;20.98;17.98;;;14.00;99.90;;;;;;5020820;28;20127;-73
2023/05/11 09:35:19;;;;;;;21.92;17.58;;;14.00;99.90;;;;;;5022187;28;20073;-74
2023/05/11 09:38:03;;;;;;;21.63;16.35;;;14.00;99.90;;;;;;5026712;28;20052;-74
2023/05/11 09:40:30;;;;;;;21.38;17.33;;;14.00;99.90;;;;;;5021139;28;20053;-75
2023/05/11 09:42:56;;;;;;;23.63;18.42;;;14.00;99.90;;;;;;5021189;28;20044;-73
2023/05/11 09:45:40;;;;;;;24.73;19.27;;;14.10;99.90;;;;;;5029203;28;20053;-74
2023/05/11 09:48:34;;;;;;;26.15;20.90;;;14.10;99.90;;;;;;5017243;28;20420;-76
2023/05/11 09:51:02;;;;;;;26.90;21.05;;;14.20;99.90;;;;;;5018195;28;20876;-74
2023/05/11 09:53:41;;;;;;;27.83;22.35;;;14.20;99.90;;;;;;5019138;28;20531;-71
2023/05/11 09:56:07;;;;;;;25.77;22.23;;;14.30;99.90;;;;;;5026623;28;20400;-72
2023/05/11 09:58:54;;;;;;;26.70;22.50;;;14.40;99.90;;;;;;5016444;28;20061;-71
2023/05/11 10:01:31;;;;;;;23.20;20.70;;;14.50;99.90;;;;;;5023601;28;20901;-69
2023/05/11 10:03:58;;;;;;;22.70;20.00;;;14.60;99.90;;;;;;5031566;28;20049;-72
2023/05/11 10:06:24;;;;;;;23.48;20.98;;;14.70;99.90;;;;;;5017373;28;20076;-73
2023/05/11 10:08:51;;;;;;;23.95;20.67;;;14.80;99.90;;;;;;5032775;28;20076;-73
2023/05/11 10:11:17;;;;;;;24.02;21.35;;;14.90;99.90;;;;;;5022033;28;20140;-74
2023/05/11 10:13:44;;;;;;;21.92;17.90;;;15.00;99.90;;;;;;5017584;28;20597;-75
2023/05/11 10:16:13;;;;;;;20.58;18.27;;;15.10;99.90;;;;;;5026179;28;20081;-74
2023/05/11 10:18:39;;;;;;;20.15;17.70;;;15.20;99.90;;;;;;5025730;28;20045;-75
2023/05/11 10:21:07;;;;;;;22.02;18.77;;;15.30;99.90;;;;;;5026384;28;20055;-73
2023/05/11 10:23:34;;;;;;;21.10;17.92;;;15.40;99.90;;;;;;5025510;28;20045;-77
2023/05/11 10:26:02;;;;;;;19.75;17.65;;;15.40;99.90;;;;;;5036115;28;20049;-76
2023/05/11 10:28:29;;;;;;;21.73;18.75;;;15.50;99.90;;;;;;5020593;28;20107;-74
2023/05/11 10:30:55;;;;;;;20.00;17.10;;;15.50;99.90;;;;;;5029802;28;20044;-74
2023/05/11 10:33:22;;;;;;;20.33;18.02;;;15.50;99.90;;;;;;5020433;28;20129;-73
2023/05/11 10:35:49;;;;;;;20.85;18.13;;;15.50;99.90;;;;;;5024176;28;20053;-73
2023/05/11 10:38:15;;;;;;;21.30;17.63;;;15.50;99.90;;;;;;5021041;28;20085;-75
2023/05/11 10:40:44;;;;;;;18.25;15.95;;;15.40;99.90;;;;;;5020366;28;20048;-76
2023/05/11 10:43:49;;;;;;;18.65;16.65;;;15.40;99.90;;;;;;5025811;28;20102;-74
2023/05/11 10:46:41;;;;;;;18.10;16.20;;;15.50;99.90;;;;;;5034648;28;20055;-73
2023/05/11 10:49:28;;;;;;;16.80;15.02;;;15.70;99.90;;;;;;5025247;28;20082;-73
2023/05/11 10:51:57;;;;;;;;;;;15.90;99.90;;;;;;5030002;28;20541;-73
2023/05/11 10:54:48;;;;;;;15.93;13.73;;;16.00;99.90;;;;;;5018094;28;19932;-74
2023/05/11 10:57:43;;;;;;;14.68;12.93;;;16.00;99.90;;;;;;5023840;28;20049;-75
2023/05/11 11:00:42;;;;;;;15.20;13.57;;;15.90;99.90;;;;;;5026138;28;20057;-70
2023/05/11 11:03:12;;;;;;;16.45;13.05;;;15.80;99.90;;;;;;5015206;28;20646;-69
2023/05/11 11:05:38;;;;;;;16.25;13.88;;;15.70;99.90;;;;;;5032533;28;20053;-72
2023/05/11 11:08:13;;;;;;;17.05;14.38;;;15.60;99.90;;;;;;5021860;28;20053;-74
2023/05/11 11:10:48;;;;;;;17.27;14.30;;;15.60;99.90;;;;;;5018375;28;20087;-72
2023/05/11 11:13:15;;;;;;;18.58;15.35;;;15.50;99.90;;;;;;5026670;28;20045;-75
2023/05/11 11:15:53;;;;;;;;;;;15.50;99.90;;;;;;5025608;28;20049;-76
2023/05/11 11:18:22;;;;;;;17.85;15.80;;;15.50;99.90;;;;;;5022757;28;19924;-72
2023/05/11 11:20:51;;;;;;;18.40;15.60;;;15.40;99.90;;;;;;5026491;28;20076;-74
2023/05/11 11:23:40;;;;;;;18.83;16.23;;;15.40;99.90;;;;;;5021015;28;20057;-76
2023/05/11 11:26:06;;;;;;;19.48;17.38;;;15.40;99.90;;;;;;5023075;28;20381;-77
2023/05/11 11:28:56;;;;;;;19.65;16.92;;;15.40;99.90;;;;;;5013029;28;20049;-76
2023/05/11 11:31:27;;;;;;;20.77;18.45;;;15.40;99.90;;;;;;5028803;28;20049;-78
2023/05/11 11:33:57;;;;;;;20.88;18.15;;;15.50;99.90;;;;;;5023324;28;20049;-76
2023/05/11 11:37:12;;;;;;;20.92;17.58;;;15.60;99.90;;;;;;5016566;28;20059;-77
2023/05/11 11:39:40;;;;;;;21.98;18.25;;;15.60;99.90;;;;;;5014090;28;20515;-74
2023/05/11 11:42:10;;;;;;;20.35;18.15;;;15.70;99.90;;;;;;5025687;28;20057;-73
2023/05/11 11:44:37;;;;;;;19.80;17.25;;;15.80;99.90;;;;;;5021610;28;20404;-72
2023/05/11 11:47:18;;;;;;;20.67;18.27;;;15.90;99.90;;;;;;5027117;28;20060;-71
2023/05/11 11:49:53;;;;;;;21.65;17.95;;;16.10;99.90;;;;;;5018159;28;20565;-71
2023/05/11 11:52:27;;;;;;;21.95;18.05;;;16.20;99.90;;;;;;5023260;28;20471;-72
2023/05/11 11:54:55;;;;;;;21.08;17.90;;;16.30;99.90;;;;;;5017822;28;20045;-75
2023/05/11 11:57:33;;;;;;;22.10;19.15;;;16.40;99.90;;;;;;5016713;28;21875;-72
2023/05/11 12:00:09;;;;;;;19.67;17.58;;;16.40;99.90;;;;;;5019014;28;20511;-71
2023/05/11 12:02:43;;;;;;;21.25;18.02;;;16.40;99.90;;;;;;5021849;28;20072;-70
2023/05/11 12:05:18;;;;;;;21.17;17.85;;;16.50;99.90;;;;;;5029010;28;20037;-70
2023/05/11 12:07:46;;;;;;;23.00;17.73;;;16.50;99.90;;;;;;5029396;28;20061;-70
2023/05/11 12:10:13;;;;;;;19.13;17.10;;;16.60;99.90;;;;;;5019837;28;20041;-72
2023/05/11 12:12:43;;;;;;;18.40;16.23;;;16.60;99.90;;;;;;5020870;28;20076;-71
2023/05/11 12:15:33;;;;;;;18.13;16.13;;;16.60;99.90;;;;;;5017501;28;20053;-72
2023/05/11 12:18:01;;;;;;;18.38;16.42;;;16.60;99.90;;;;;;5012434;28;20938;-73
2023/05/11 12:20:27;;;;;;;17.02;15.23;;;16.70;99.90;;;;;;5013509;28;20060;-71
2023/05/11 12:22:53;;;;;;;17.00;15.20;;;16.70;99.90;;;;;;5020462;28;20045;-74
2023/05/11 12:25:20;;;;;;;15.93;14.23;;;16.70;99.90;;;;;;5024961;28;20053;-71
2023/05/11 12:28:01;;;;;;;15.43;12.73;;;16.80;99.90;;;;;;5018005;28;21055;-72
2023/05/11 12:30:32;;;;;;;16.67;14.20;;;16.80;99.90;;;;;;5022699;28;20056;-72
2023/05/11 12:33:00;;;;;;;15.27;13.48;;;16.90;99.90;;;;;;5011125;28;20103;-73
2023/05/11 12:35:32;;;;;;;15.18;13.30;;;16.90;99.90;;;;;;5017341;28;20123;-73
2023/05/11 12:38:00;;;;;;;14.95;12.55;;;17.00;99.90;;;;;;5014253;28;20052;-72